Terminal Aerodrome Forecast
Issued by NWS Missoula, MT

Current Version | Previous Version | Text Only | Print | Product List | Glossary On
Versions: 1 2 3 4 5 6 7 8 9 10 11 12
910
FTUS45 KMSO 121120
TAFBTM
TAF
KBTM 121120Z 1212/1312 00000KT P6SM SKC=

USA.gov is the U.S. government's official web portal to all federal, state and local government web resources and services.